createdAt,value
2018-03-29T00:00:58.568Z,12.38
2018-03-29T00:01:58.579Z,12.35
2018-03-29T00:02:58.602Z,12.29
2018-03-29T00:03:58.616Z,12.34
2018-03-29T00:04:58.691Z,12.38
2018-03-29T00:05:58.653Z,12.37
2018-03-29T00:06:58.672Z,12.24
2018-03-29T00:07:58.690Z,12.34
2018-03-29T00:08:58.709Z,12.31
2018-03-29T00:09:58.727Z,12.27
2018-03-29T00:10:58.744Z,12.28
2018-03-29T00:11:58.765Z,12.28
2018-03-29T00:12:58.829Z,12.27
2018-03-29T00:13:58.798Z,12.28
2018-03-29T00:14:58.814Z,12.29
2018-03-29T00:15:58.834Z,12.21
2018-03-29T00:16:58.900Z,12.27
2018-03-29T00:17:58.871Z,12.24
2018-03-29T00:18:58.888Z,12.24
2018-03-29T00:19:58.902Z,12.28
2018-03-29T00:20:58.921Z,12.28
2018-03-29T00:21:58.943Z,12.21
2018-03-29T00:22:59.014Z,12.21
2018-03-29T00:23:58.976Z,12.20
2018-03-29T00:24:58.994Z,12.19
2018-03-29T00:25:59.013Z,12.29
2018-03-29T00:26:59.032Z,12.24
2018-03-29T00:27:59.047Z,12.31
2018-03-29T00:28:59.117Z,12.21
2018-03-29T00:29:59.081Z,12.24
2018-03-29T00:30:59.099Z,12.14
2018-03-29T00:31:59.128Z,12.14
2018-03-29T00:32:59.137Z,12.04
2018-03-29T00:33:59.153Z,12.04
2018-03-29T00:34:59.170Z,12.10
2018-03-29T00:35:59.186Z,11.96
2018-03-29T00:37:59.227Z,11.96
2018-03-29T00:38:59.253Z,11.91
2018-03-29T00:39:59.262Z,11.88
2018-03-29T00:40:59.327Z,11.90
2018-03-29T00:41:59.302Z,11.94
2018-03-29T00:42:59.322Z,11.95
2018-03-29T00:43:59.329Z,11.91
2018-03-29T00:44:59.345Z,11.94
2018-03-29T00:45:59.362Z,11.91
2018-03-29T00:46:59.439Z,11.91
2018-03-29T00:47:59.402Z,11.86
2018-03-29T00:48:59.427Z,11.86
2018-03-29T00:49:59.432Z,11.83
2018-03-29T00:50:59.463Z,11.86
2018-03-29T00:51:59.469Z,11.86
2018-03-29T00:52:59.541Z,11.86
2018-03-29T00:53:59.505Z,11.80
2018-03-29T00:54:59.540Z,11.75
2018-03-29T00:55:59.541Z,11.82
2018-03-29T00:56:59.561Z,11.85
2018-03-29T00:57:59.576Z,11.80
2018-03-29T00:58:59.591Z,11.75
2018-03-29T00:59:59.610Z,11.76
2018-03-29T01:00:59.629Z,11.78
2018-03-29T01:01:59.645Z,11.79
2018-03-29T01:02:59.661Z,11.75
2018-03-29T01:03:59.719Z,11.69
2018-03-29T01:04:59.750Z,11.67
2018-03-29T01:05:59.718Z,11.76
2018-03-29T01:06:59.732Z,11.79
2018-03-29T01:07:59.747Z,11.72
2018-03-29T01:08:59.765Z,11.69
2018-03-29T01:09:59.787Z,11.65
2018-03-29T01:10:59.804Z,11.67
2018-03-29T01:11:59.832Z,11.67
2018-03-29T01:12:59.837Z,11.62
2018-03-29T01:13:59.857Z,11.70
2018-03-29T01:14:59.882Z,11.67
2018-03-29T01:15:59.889Z,11.69
2018-03-29T01:16:59.938Z,11.55
2018-03-29T01:17:59.924Z,11.52
2018-03-29T01:18:59.942Z,11.55
2018-03-29T01:19:59.961Z,11.51
2018-03-29T01:20:59.985Z,11.52
2018-03-29T01:22:00.010Z,11.58
2018-03-29T01:23:00.067Z,11.62
2018-03-29T01:24:00.031Z,11.65
2018-03-29T01:25:00.050Z,11.70
2018-03-29T01:26:00.080Z,11.67
2018-03-29T01:27:00.096Z,11.62
2018-03-29T01:28:00.103Z,11.62
2018-03-29T01:29:00.119Z,11.58
2018-03-29T01:30:00.167Z,11.57
2018-03-29T01:31:00.152Z,11.54
2018-03-29T01:32:00.174Z,11.47
2018-03-29T01:33:00.197Z,11.51
2018-03-29T01:34:00.207Z,11.49
2018-03-29T01:35:00.278Z,11.64
2018-03-29T01:36:00.268Z,11.58
2018-03-29T01:37:00.269Z,11.65
2018-03-29T01:38:00.277Z,11.62
2018-03-29T01:39:00.296Z,11.67
2018-03-29T01:40:00.314Z,11.70
2018-03-29T01:41:00.381Z,11.72
2018-03-29T01:42:00.376Z,11.67
2018-03-29T01:43:00.367Z,11.78
2018-03-29T01:44:00.383Z,11.78
2018-03-29T01:45:00.402Z,11.69
2018-03-29T01:46:00.418Z,11.83
2018-03-29T01:47:00.448Z,11.90
2018-03-29T01:48:00.453Z,11.83
2018-03-29T01:49:00.472Z,11.83
2018-03-29T01:50:00.503Z,11.85
2018-03-29T01:51:00.505Z,11.91
2018-03-29T01:52:00.536Z,11.95
2018-03-29T01:53:00.607Z,11.82
2018-03-29T01:54:00.559Z,11.83
2018-03-29T01:55:00.584Z,11.80
2018-03-29T01:56:00.605Z,11.86
2018-03-29T01:57:00.614Z,11.79
2018-03-29T01:58:00.638Z,11.72
2018-03-29T01:59:00.652Z,11.83
2018-03-29T02:00:00.668Z,11.85
2018-03-29T02:01:00.789Z,11.85
2018-03-29T02:02:00.712Z,11.75
2018-03-29T02:03:00.726Z,11.65
2018-03-29T02:04:00.740Z,11.73
2018-03-29T02:05:00.756Z,11.65
2018-03-29T02:06:00.771Z,11.62
2018-03-29T02:07:00.791Z,11.62
2018-03-29T02:08:00.810Z,11.72
2018-03-29T02:09:00.833Z,11.73
2018-03-29T02:10:00.845Z,11.69
2018-03-29T02:11:00.863Z,11.65
2018-03-29T02:12:00.888Z,11.58
2018-03-29T02:13:00.908Z,11.52
2018-03-29T02:14:00.920Z,11.54
2018-03-29T02:15:00.932Z,11.57
2018-03-29T02:16:00.949Z,11.51
2018-03-29T02:17:00.979Z,11.54
2018-03-29T02:18:00.984Z,11.57
2018-03-29T02:19:01.015Z,11.49
2018-03-29T02:20:01.063Z,11.43
2018-03-29T02:21:01.042Z,11.40
2018-03-29T02:22:01.056Z,11.44
2018-03-29T02:23:01.075Z,11.35
2018-03-29T02:24:01.099Z,11.32
2018-03-29T02:25:01.108Z,11.37
2018-03-29T02:26:01.126Z,11.36
2018-03-29T02:27:01.155Z,11.39
2018-03-29T02:28:01.171Z,11.33
2018-03-29T02:29:01.231Z,11.44
2018-03-29T02:30:01.203Z,11.35
2018-03-29T02:31:01.219Z,11.44
2018-03-29T02:32:01.242Z,11.46
2018-03-29T02:33:01.278Z,11.51
2018-03-29T02:34:01.272Z,11.35
2018-03-29T02:35:01.338Z,11.36
2018-03-29T02:36:01.312Z,11.40
2018-03-29T02:37:01.318Z,11.35
2018-03-29T02:38:01.345Z,11.29
2018-03-29T02:39:01.358Z,11.35
2018-03-29T02:40:01.378Z,11.39
2018-03-29T02:41:01.400Z,11.46
2018-03-29T02:42:01.409Z,11.51
2018-03-29T02:43:01.436Z,11.52
2018-03-29T02:44:01.448Z,11.49
2018-03-29T02:45:01.463Z,11.47
2018-03-29T02:46:01.563Z,11.52
2018-03-29T02:47:01.496Z,11.49
2018-03-29T02:48:01.526Z,11.60
2018-03-29T02:49:01.538Z,11.70
2018-03-29T02:50:01.547Z,11.73
2018-03-29T02:51:01.577Z,11.62
2018-03-29T02:52:01.587Z,11.58
2018-03-29T02:53:01.658Z,11.64
2018-03-29T02:54:01.626Z,11.62
2018-03-29T02:55:01.637Z,11.69
2018-03-29T02:56:01.662Z,11.70
2018-03-29T02:57:01.667Z,11.73
2018-03-29T02:58:01.686Z,11.69
2018-03-29T02:59:01.841Z,11.67
2018-03-29T03:00:01.725Z,11.55
2018-03-29T03:01:01.740Z,11.58
2018-03-29T03:02:01.766Z,11.62
2018-03-29T03:03:01.778Z,11.65
2018-03-29T03:04:01.817Z,11.61
2018-03-29T03:05:01.925Z,11.47
2018-03-29T03:06:01.836Z,11.49
2018-03-29T03:07:01.870Z,11.49
2018-03-29T03:08:01.873Z,11.52
2018-03-29T03:09:01.889Z,11.49
2018-03-29T03:10:01.899Z,11.40
2018-03-29T03:11:01.975Z,11.44
2018-03-29T03:12:01.941Z,11.37
2018-03-29T03:13:01.951Z,11.44
2018-03-29T03:14:01.966Z,11.22
2018-03-29T03:15:01.988Z,11.32
2018-03-29T03:16:02.002Z,11.32
2018-03-29T03:17:02.029Z,11.32
2018-03-29T03:18:02.066Z,11.25
2018-03-29T03:19:02.061Z,11.25
2018-03-29T03:20:02.081Z,11.22
2018-03-29T03:21:02.096Z,11.19
2018-03-29T03:22:02.115Z,11.22
2018-03-29T03:23:02.172Z,11.10
2018-03-29T03:24:02.188Z,11.10
2018-03-29T03:25:02.163Z,11.14
2018-03-29T03:26:02.174Z,11.14
2018-03-29T03:27:02.201Z,11.14
2018-03-29T03:28:02.217Z,11.07
2018-03-29T03:29:02.280Z,11.15
2018-03-29T03:30:02.253Z,11.10
2018-03-29T03:31:02.263Z,11.07
2018-03-29T03:32:02.280Z,11.11
2018-03-29T03:33:02.305Z,11.02
2018-03-29T03:34:02.322Z,11.02
2018-03-29T03:35:02.342Z,10.97
2018-03-29T03:36:02.378Z,10.99
2018-03-29T03:37:02.390Z,10.97
2018-03-29T03:38:02.381Z,10.99
2018-03-29T03:39:02.401Z,11.02
2018-03-29T03:40:02.417Z,10.96
2018-03-29T03:41:02.435Z,10.92
2018-03-29T03:42:02.450Z,10.91
2018-03-29T03:43:02.508Z,10.84
2018-03-29T03:44:02.494Z,10.96
2018-03-29T03:45:02.502Z,10.96
2018-03-29T03:46:02.526Z,11.00
2018-03-29T03:47:02.536Z,10.94
2018-03-29T03:48:02.561Z,11.00
2018-03-29T03:49:02.581Z,10.97
2018-03-29T03:50:02.586Z,10.89
2018-03-29T03:51:02.616Z,10.88
2018-03-29T03:52:02.622Z,10.74
2018-03-29T03:53:02.643Z,10.82
2018-03-29T03:54:02.665Z,10.86
2018-03-29T03:55:02.685Z,10.82
2018-03-29T03:56:02.709Z,10.88
2018-03-29T03:57:02.705Z,10.85
2018-03-29T03:58:02.728Z,10.82
2018-03-29T03:59:02.749Z,10.82
2018-03-29T04:00:02.762Z,10.82
2018-03-29T04:01:02.775Z,10.84
2018-03-29T04:02:02.839Z,10.84
2018-03-29T04:03:02.815Z,10.74
2018-03-29T04:04:02.830Z,10.74
2018-03-29T04:05:02.846Z,10.79
2018-03-29T04:06:02.870Z,10.73
2018-03-29T04:07:02.882Z,10.82
2018-03-29T04:08:02.920Z,10.82
2018-03-29T04:09:02.923Z,10.73
2018-03-29T04:10:02.932Z,10.68
2018-03-29T04:11:02.956Z,10.76
2018-03-29T04:12:02.964Z,10.76
2018-03-29T04:13:02.992Z,10.64
2018-03-29T04:14:03.016Z,10.67
2018-03-29T04:15:03.017Z,10.73
2018-03-29T04:16:03.035Z,10.74
2018-03-29T04:17:03.105Z,10.63
2018-03-29T04:18:03.068Z,10.67
2018-03-29T04:19:03.084Z,10.68
2018-03-29T04:20:03.103Z,10.60
2018-03-29T04:21:03.132Z,10.63
2018-03-29T04:22:03.140Z,10.60
2018-03-29T04:23:03.156Z,10.51
2018-03-29T04:24:03.186Z,10.56
2018-03-29T04:25:03.188Z,10.59
2018-03-29T04:26:03.205Z,10.48
2018-03-29T04:27:03.221Z,10.44
2018-03-29T04:28:03.242Z,10.42
2018-03-29T04:29:03.257Z,10.48
2018-03-29T04:30:03.274Z,10.55
2018-03-29T04:31:03.294Z,10.48
2018-03-29T04:32:03.310Z,10.53
2018-03-29T04:33:03.384Z,10.41
2018-03-29T04:34:03.345Z,10.44
2018-03-29T04:35:03.369Z,10.30
2018-03-29T04:36:03.387Z,10.38
2018-03-29T04:37:03.395Z,10.30
2018-03-29T04:38:03.421Z,10.26
2018-03-29T04:39:03.444Z,10.27
2018-03-29T04:40:03.446Z,10.18
2018-03-29T04:41:03.513Z,10.34
2018-03-29T04:42:03.482Z,10.27
2018-03-29T04:43:03.498Z,10.23
2018-03-29T04:44:03.519Z,10.30
2018-03-29T04:45:03.542Z,10.26
2018-03-29T04:46:03.548Z,10.22
2018-03-29T04:47:03.576Z,10.17
2018-03-29T04:48:03.596Z,10.11
2018-03-29T04:49:03.602Z,10.08
2018-03-29T04:50:03.625Z,10.05
2018-03-29T04:51:03.645Z,10.08
2018-03-29T04:52:03.662Z,10.11
2018-03-29T04:53:03.749Z,10.11
2018-03-29T04:54:03.685Z,10.02
2018-03-29T04:55:03.702Z,9.93
2018-03-29T04:56:03.722Z,9.93
2018-03-29T04:57:03.737Z,9.93
2018-03-29T04:58:03.756Z,9.97
2018-03-29T04:59:03.821Z,9.90
2018-03-29T05:00:03.799Z,9.91
2018-03-29T05:01:03.812Z,9.96
2018-03-29T05:02:03.825Z,9.89
2018-03-29T05:03:03.839Z,9.94
2018-03-29T05:04:03.855Z,9.96
2018-03-29T05:05:03.940Z,9.94
2018-03-29T05:06:03.897Z,9.96
2018-03-29T05:07:03.910Z,9.96
2018-03-29T05:08:03.926Z,10.04
2018-03-29T05:09:03.946Z,10.07
2018-03-29T05:10:03.975Z,10.09
2018-03-29T05:11:03.996Z,10.08
2018-03-29T05:12:03.990Z,10.04
2018-03-29T05:13:04.009Z,10.12
2018-03-29T05:14:04.025Z,9.96
2018-03-29T05:15:04.044Z,9.96
2018-03-29T05:16:04.066Z,9.91
2018-03-29T05:17:04.089Z,9.97
2018-03-29T05:18:04.092Z,9.91
2018-03-29T05:19:04.111Z,9.99
2018-03-29T05:20:04.126Z,9.99
2018-03-29T05:21:04.146Z,9.91
2018-03-29T05:22:04.169Z,9.81
2018-03-29T05:23:04.179Z,9.86
2018-03-29T05:24:04.257Z,9.81
2018-03-29T05:25:04.208Z,9.75
2018-03-29T05:26:04.239Z,9.74
2018-03-29T05:27:04.251Z,9.65
2018-03-29T05:28:04.274Z,9.65
2018-03-29T05:29:04.332Z,9.56
2018-03-29T05:30:04.332Z,9.54
2018-03-29T05:31:04.316Z,9.51
2018-03-29T05:32:04.337Z,9.56
2018-03-29T05:33:04.349Z,9.65
2018-03-29T05:34:04.368Z,9.71
2018-03-29T05:35:04.435Z,9.75
2018-03-29T05:36:04.400Z,9.81
2018-03-29T05:37:04.417Z,9.89
2018-03-29T05:38:04.432Z,10.01
2018-03-29T05:39:04.450Z,10.09
2018-03-29T05:40:04.491Z,10.07
2018-03-29T05:41:04.590Z,10.15
2018-03-29T05:42:04.503Z,10.07
2018-03-29T05:43:04.564Z,10.23
2018-03-29T05:44:04.546Z,10.38
2018-03-29T05:45:04.564Z,10.42
2018-03-29T05:46:04.571Z,10.61
2018-03-29T05:47:04.587Z,10.66
2018-03-29T05:48:04.602Z,10.67
2018-03-29T05:49:04.623Z,10.73
2018-03-29T05:50:04.639Z,10.71
2018-03-29T05:51:04.656Z,10.70
2018-03-29T05:52:04.684Z,10.66
2018-03-29T05:53:04.742Z,10.66
2018-03-29T05:54:04.710Z,10.53
2018-03-29T05:55:04.725Z,10.56
2018-03-29T05:56:04.751Z,10.52
2018-03-29T05:57:04.762Z,10.47
2018-03-29T05:58:04.776Z,10.36
2018-03-29T05:59:04.795Z,10.36
2018-03-29T06:00:04.815Z,10.30
2018-03-29T06:01:04.830Z,10.33
2018-03-29T06:02:04.891Z,10.36
2018-03-29T06:03:04.888Z,10.34
2018-03-29T06:04:04.878Z,10.40
2018-03-29T06:05:04.944Z,10.40
2018-03-29T06:06:04.909Z,10.36
2018-03-29T06:07:04.945Z,10.41
2018-03-29T06:08:04.957Z,10.40
2018-03-29T06:09:04.965Z,10.51
2018-03-29T06:10:04.979Z,10.42
2018-03-29T06:11:05.114Z,10.51
2018-03-29T06:12:05.025Z,10.53
2018-03-29T06:13:05.030Z,10.38
2018-03-29T06:14:05.060Z,10.42
2018-03-29T06:15:05.085Z,10.36
2018-03-29T06:16:05.097Z,10.44
2018-03-29T06:17:05.149Z,10.47
2018-03-29T06:18:05.117Z,10.40
2018-03-29T06:19:05.135Z,10.42
2018-03-29T06:20:05.154Z,10.53
2018-03-29T06:21:05.191Z,10.44
2018-03-29T06:22:05.190Z,10.42
2018-03-29T06:23:05.204Z,10.27
2018-03-29T06:24:05.227Z,10.32
2018-03-29T06:25:05.239Z,10.34
2018-03-29T06:26:05.258Z,10.36
2018-03-29T06:27:05.277Z,10.30
2018-03-29T06:28:05.293Z,10.34
2018-03-29T06:29:05.309Z,10.20
2018-03-29T06:30:05.328Z,10.36
2018-03-29T06:31:05.342Z,10.45
2018-03-29T06:32:05.360Z,10.33
2018-03-29T06:33:05.465Z,10.40
2018-03-29T06:34:05.411Z,10.47
2018-03-29T06:35:05.411Z,10.42
2018-03-29T06:36:05.430Z,10.40
2018-03-29T06:37:05.448Z,10.42
2018-03-29T06:38:05.465Z,10.48
2018-03-29T06:39:05.491Z,10.53
2018-03-29T06:40:05.498Z,10.70
2018-03-29T06:41:05.568Z,10.66
2018-03-29T06:42:05.534Z,10.61
2018-03-29T06:43:05.552Z,10.60
2018-03-29T06:44:05.571Z,10.64
2018-03-29T06:45:05.585Z,10.53
2018-03-29T06:46:05.628Z,10.66
2018-03-29T06:47:05.680Z,10.68
2018-03-29T06:48:05.645Z,10.63
2018-03-29T06:49:05.654Z,10.64
2018-03-29T06:50:05.672Z,10.76
2018-03-29T06:51:05.691Z,10.74
2018-03-29T06:52:05.719Z,10.68
2018-03-29T06:53:05.734Z,10.70
2018-03-29T06:54:05.749Z,10.70
2018-03-29T06:55:05.756Z,10.73
2018-03-29T06:56:05.777Z,10.76
2018-03-29T06:57:05.803Z,10.76
2018-03-29T06:58:05.811Z,10.82
2018-03-29T06:59:05.869Z,10.86
2018-03-29T07:00:05.853Z,10.97
2018-03-29T07:01:05.916Z,11.00
2018-03-29T07:02:05.889Z,10.97
2018-03-29T07:03:05.906Z,11.09
2018-03-29T07:04:05.923Z,11.22
2018-03-29T07:05:05.984Z,11.33
2018-03-29T07:06:05.956Z,11.37
2018-03-29T07:07:05.968Z,11.33
2018-03-29T07:08:05.988Z,11.47
2018-03-29T07:09:06.033Z,11.52
2018-03-29T07:10:06.019Z,11.60
2018-03-29T07:11:06.052Z,11.46
2018-03-29T07:12:06.058Z,11.49
2018-03-29T07:13:06.082Z,11.47
2018-03-29T07:14:06.093Z,11.47
2018-03-29T07:15:06.119Z,11.35
2018-03-29T07:16:06.136Z,11.40
2018-03-29T07:17:06.143Z,11.29
2018-03-29T07:18:06.219Z,11.42
2018-03-29T07:19:06.181Z,11.47
2018-03-29T07:20:06.200Z,11.44
2018-03-29T07:21:06.215Z,11.54
2018-03-29T07:22:06.241Z,11.37
2018-03-29T07:23:06.258Z,11.33
2018-03-29T07:24:06.270Z,11.32
2018-03-29T07:25:06.287Z,11.36
2018-03-29T07:26:06.305Z,11.32
2018-03-29T07:27:06.323Z,11.35
2018-03-29T07:28:06.339Z,11.37
2018-03-29T07:29:06.414Z,11.33
2018-03-29T07:30:06.384Z,11.44
2018-03-29T07:31:06.392Z,11.51
2018-03-29T07:32:06.413Z,11.42
2018-03-29T07:33:06.437Z,11.40
2018-03-29T07:34:06.447Z,11.54
2018-03-29T07:35:06.514Z,11.57
2018-03-29T07:36:06.483Z,11.62
2018-03-29T07:37:06.528Z,11.61
2018-03-29T07:38:06.527Z,11.62
2018-03-29T07:39:06.536Z,11.61
2018-03-29T07:40:06.552Z,11.62
2018-03-29T07:41:06.625Z,11.60
2018-03-29T07:42:06.586Z,11.61
2018-03-29T07:43:06.622Z,11.76
2018-03-29T07:44:06.633Z,11.78
2018-03-29T07:45:06.639Z,11.76
2018-03-29T07:46:06.657Z,11.85
2018-03-29T07:47:06.745Z,11.83
2018-03-29T07:48:06.699Z,11.94
2018-03-29T07:49:06.711Z,11.94
2018-03-29T07:50:06.728Z,11.98
2018-03-29T07:51:06.756Z,12.13
2018-03-29T07:52:06.767Z,12.13
2018-03-29T07:53:06.783Z,12.05
2018-03-29T07:54:06.798Z,12.16
2018-03-29T07:55:06.819Z,12.28
2018-03-29T07:56:06.865Z,12.38
2018-03-29T07:57:06.853Z,12.46
2018-03-29T07:58:06.880Z,12.45
2018-03-29T07:59:06.908Z,12.57
2018-03-29T08:00:06.908Z,12.54
2018-03-29T08:01:06.937Z,12.62
2018-03-29T08:02:06.952Z,12.64
2018-03-29T08:03:06.966Z,12.60
2018-03-29T08:04:06.980Z,12.64
2018-03-29T08:05:06.999Z,12.54
2018-03-29T08:06:07.031Z,12.65
2018-03-29T08:07:07.037Z,12.77
2018-03-29T08:08:07.050Z,12.89
2018-03-29T08:09:07.118Z,13.04
2018-03-29T08:10:07.088Z,13.12
2018-03-29T08:11:07.161Z,13.25
2018-03-29T08:12:07.127Z,13.39
2018-03-29T08:13:07.142Z,13.36
2018-03-29T08:14:07.171Z,13.46
2018-03-29T08:15:07.260Z,13.33
2018-03-29T08:16:07.199Z,13.30
2018-03-29T08:17:07.266Z,13.79
2018-03-29T08:18:07.233Z,13.66
2018-03-29T08:19:07.254Z,13.64
2018-03-29T08:20:07.271Z,13.77
2018-03-29T08:21:07.296Z,13.77
2018-03-29T08:22:07.317Z,13.95
2018-03-29T08:23:07.377Z,14.28
2018-03-29T08:24:07.342Z,14.65
2018-03-29T08:25:07.368Z,14.55
2018-03-29T08:26:07.391Z,14.25
2018-03-29T08:27:07.396Z,14.18
2018-03-29T08:28:07.465Z,14.89
2018-03-29T08:29:07.485Z,15.59
2018-03-29T08:30:07.463Z,15.74
2018-03-29T08:31:07.475Z,16.12
2018-03-29T08:32:07.501Z,16.15
2018-03-29T08:33:07.560Z,16.50
2018-03-29T08:34:07.530Z,17.01
2018-03-29T08:35:07.610Z,17.59
2018-03-29T08:36:07.574Z,17.87
2018-03-29T08:37:07.590Z,18.03
2018-03-29T08:38:07.607Z,18.17
2018-03-29T08:39:07.624Z,17.30
2018-03-29T08:40:07.654Z,17.15
2018-03-29T08:41:07.666Z,17.01
2018-03-29T08:42:07.681Z,17.44
2018-03-29T08:43:07.711Z,17.75
2018-03-29T08:44:07.721Z,18.20
2018-03-29T08:45:07.741Z,18.32
2018-03-29T08:46:07.761Z,17.68
2018-03-29T08:47:07.798Z,17.95
2018-03-29T08:48:07.808Z,18.11
2018-03-29T08:49:07.821Z,17.97
2018-03-29T08:50:07.845Z,17.87
2018-03-29T08:51:08.065Z,18.25
2018-03-29T08:52:08.089Z,18.51
2018-03-29T08:53:07.962Z,18.72
2018-03-29T08:54:08.014Z,18.63
2018-03-29T08:55:07.950Z,18.78
2018-03-29T08:56:07.968Z,18.81
2018-03-29T08:57:07.988Z,19.22
2018-03-29T08:58:08.011Z,19.73
2018-03-29T08:59:08.029Z,19.86
2018-03-29T09:00:08.060Z,19.68
2018-03-29T09:01:08.075Z,19.50
2018-03-29T09:02:08.100Z,19.76
2018-03-29T09:03:08.118Z,19.56
2018-03-29T09:04:08.147Z,19.22
2018-03-29T09:05:08.154Z,18.92
2018-03-29T09:06:08.181Z,18.52
2018-03-29T09:07:08.207Z,19.23
2018-03-29T09:08:08.220Z,19.96
2018-03-29T09:09:08.242Z,20.21
2018-03-29T09:10:08.312Z,19.76
2018-03-29T09:11:08.295Z,19.31
2018-03-29T09:12:08.307Z,19.21
2018-03-29T09:13:08.372Z,18.84
2018-03-29T09:14:08.350Z,17.82
2018-03-29T09:15:08.375Z,17.16
2018-03-29T09:16:08.395Z,16.98
2018-03-29T09:17:08.415Z,17.46
2018-03-29T09:18:08.445Z,17.31
2018-03-29T09:19:08.470Z,16.86
2018-03-29T09:20:08.480Z,17.11
2018-03-29T09:21:08.510Z,16.96
2018-03-29T09:22:08.534Z,16.45
2018-03-29T09:23:08.548Z,16.04
2018-03-29T09:24:08.566Z,15.84
2018-03-29T09:26:08.639Z,15.57
2018-03-29T09:27:08.635Z,15.71
2018-03-29T09:28:08.703Z,15.72
2018-03-29T09:29:08.669Z,16.01
2018-03-29T09:30:08.687Z,16.11
2018-03-29T09:31:08.711Z,16.35
2018-03-29T09:32:08.745Z,16.61
2018-03-29T09:33:08.759Z,16.68
2018-03-29T09:34:08.773Z,16.43
2018-03-29T09:35:08.803Z,16.28
2018-03-29T09:36:08.820Z,16.09
2018-03-29T09:37:08.842Z,16.48
2018-03-29T09:38:08.864Z,16.61
2018-03-29T09:39:08.883Z,16.48
2018-03-29T09:40:08.953Z,16.49
2018-03-29T09:41:08.913Z,16.78
2018-03-29T09:42:08.932Z,16.96
2018-03-29T09:43:08.953Z,17.08
2018-03-29T09:44:08.988Z,16.97
2018-03-29T09:45:09.066Z,16.34
2018-03-29T09:46:09.017Z,15.94
2018-03-29T09:47:09.047Z,15.72
2018-03-29T09:48:09.058Z,15.87
2018-03-29T09:49:09.074Z,15.65
2018-03-29T09:50:09.108Z,15.69
2018-03-29T09:51:09.155Z,15.50
2018-03-29T09:52:09.189Z,15.51
2018-03-29T09:53:09.155Z,15.67
2018-03-29T09:54:09.176Z,15.82
2018-03-29T09:55:09.194Z,15.82
2018-03-29T09:56:09.215Z,15.92
2018-03-29T09:57:09.243Z,15.76
2018-03-29T09:58:09.307Z,15.67
2018-03-29T09:59:09.272Z,15.62
2018-03-29T10:00:09.298Z,15.41
2018-03-29T10:01:09.315Z,15.14
2018-03-29T10:02:09.333Z,14.89
2018-03-29T10:03:09.368Z,15.28
2018-03-29T10:04:09.448Z,15.16
2018-03-29T10:05:09.404Z,15.27
2018-03-29T10:06:09.413Z,15.09
2018-03-29T10:07:09.443Z,15.07
2018-03-29T10:08:09.459Z,15.14
2018-03-29T10:09:09.481Z,14.92
2018-03-29T10:10:09.492Z,14.96
2018-03-29T10:11:09.512Z,14.89
2018-03-29T10:12:09.547Z,14.77
2018-03-29T10:13:09.560Z,14.72
2018-03-29T10:14:09.569Z,14.80
2018-03-29T10:15:09.586Z,14.78
2018-03-29T10:16:09.607Z,14.96
2018-03-29T10:17:09.624Z,15.14
2018-03-29T10:18:09.655Z,15.03
2018-03-29T10:19:09.667Z,14.73
2018-03-29T10:20:09.684Z,14.51
2018-03-29T10:21:09.702Z,14.36
2018-03-29T10:22:09.783Z,14.29
2018-03-29T10:23:09.741Z,14.14
2018-03-29T10:24:09.812Z,13.89
2018-03-29T10:25:09.788Z,13.91
2018-03-29T10:26:09.799Z,13.84
2018-03-29T10:27:09.819Z,13.71
2018-03-29T10:28:09.888Z,13.77
2018-03-29T10:29:09.928Z,13.82
2018-03-29T10:30:09.899Z,13.85
2018-03-29T10:31:09.904Z,13.89
2018-03-29T10:32:09.912Z,14.18
2018-03-29T10:33:09.932Z,14.27
2018-03-29T10:34:10.004Z,14.43
2018-03-29T10:35:09.992Z,14.65
2018-03-29T10:36:09.984Z,14.80
2018-03-29T10:37:10.003Z,14.94
2018-03-29T10:38:10.022Z,15.14
2018-03-29T10:39:10.043Z,15.35
2018-03-29T10:40:10.065Z,15.50
2018-03-29T10:41:10.130Z,15.80
2018-03-29T10:42:10.098Z,15.76
2018-03-29T10:43:10.121Z,15.64
2018-03-29T10:44:10.139Z,15.69
2018-03-29T10:45:10.165Z,15.87
2018-03-29T10:46:10.177Z,15.74
2018-03-29T10:47:10.192Z,15.76
2018-03-29T10:48:10.270Z,15.94
2018-03-29T10:49:10.242Z,16.71
2018-03-29T10:50:10.252Z,17.46
2018-03-29T10:51:10.373Z,17.12
2018-03-29T10:52:10.302Z,17.15
2018-03-29T10:53:10.316Z,17.19
2018-03-29T10:54:10.355Z,18.20
2018-03-29T10:55:10.349Z,18.82
2018-03-29T10:56:10.383Z,18.90
2018-03-29T10:57:10.396Z,18.69
2018-03-29T10:58:10.408Z,18.72
2018-03-29T10:59:10.427Z,18.14
2018-03-29T11:00:10.449Z,17.99
2018-03-29T11:01:10.526Z,17.31
2018-03-29T11:02:10.489Z,16.81
2018-03-29T11:03:10.520Z,16.88
2018-03-29T11:04:10.582Z,16.88
2018-03-29T11:05:10.558Z,16.98
2018-03-29T11:06:10.578Z,18.03
2018-03-29T11:07:10.619Z,18.72
2018-03-29T11:08:10.609Z,17.78
2018-03-29T11:09:10.629Z,17.64
2018-03-29T11:10:10.709Z,17.89
2018-03-29T11:11:10.671Z,18.44
2018-03-29T11:12:10.691Z,18.21
2018-03-29T11:13:10.709Z,19.16
2018-03-29T11:14:10.740Z,20.02
2018-03-29T11:15:10.754Z,20.29
2018-03-29T11:16:10.831Z,20.98
2018-03-29T11:17:10.802Z,21.03
2018-03-29T11:18:10.820Z,20.74
2018-03-29T11:19:10.838Z,19.95
2018-03-29T11:20:10.918Z,18.99
2018-03-29T11:21:10.881Z,18.36
2018-03-29T11:22:10.901Z,17.49
2018-03-29T11:23:10.922Z,17.64
2018-03-29T11:24:10.952Z,18.12
2018-03-29T11:25:10.974Z,19.13
2018-03-29T11:26:11.016Z,20.20
2018-03-29T11:27:11.008Z,20.38
2018-03-29T11:28:11.081Z,20.95
2018-03-29T11:29:11.060Z,21.71
2018-03-29T11:30:11.072Z,20.33
2018-03-29T11:31:11.102Z,18.81
2018-03-29T11:32:11.114Z,18.35
2018-03-29T11:33:11.146Z,18.25
2018-03-29T11:34:11.217Z,17.82
2018-03-29T11:35:11.181Z,17.71
2018-03-29T11:36:11.204Z,17.14
2018-03-29T11:37:11.229Z,17.12
2018-03-29T11:38:11.246Z,16.98
2018-03-29T11:39:11.289Z,17.15
2018-03-29T11:40:11.343Z,17.49
2018-03-29T11:41:11.309Z,17.43
2018-03-29T11:42:11.340Z,18.18
2018-03-29T11:43:11.353Z,17.77
2018-03-29T11:44:11.382Z,17.49
2018-03-29T11:45:11.422Z,17.19
2018-03-29T11:46:11.465Z,17.07
2018-03-29T11:47:11.434Z,17.01
2018-03-29T11:48:11.464Z,16.88
2018-03-29T11:49:11.484Z,17.26
2018-03-29T11:50:11.499Z,18.35
2018-03-29T11:51:11.543Z,18.88
2018-03-29T11:52:11.592Z,19.23
2018-03-29T11:53:11.571Z,19.18
2018-03-29T11:54:11.580Z,18.73
2018-03-29T11:55:11.601Z,18.35
2018-03-29T11:56:11.627Z,17.82
2018-03-29T11:57:11.651Z,17.86
2018-03-29T11:58:11.669Z,18.32
2018-03-29T11:59:11.687Z,19.36
2018-03-29T12:00:11.709Z,19.58
2018-03-29T12:01:11.730Z,19.40
2018-03-29T12:02:11.761Z,19.86
2018-03-29T12:03:11.771Z,18.48
2018-03-29T12:04:11.843Z,17.44
2018-03-29T12:05:11.830Z,16.88
2018-03-29T12:06:11.841Z,16.66
2018-03-29T12:07:11.857Z,16.86
2018-03-29T12:08:11.877Z,17.89
2018-03-29T12:09:11.910Z,18.75
2018-03-29T12:10:12.012Z,19.95
2018-03-29T12:11:11.945Z,20.35
2018-03-29T12:12:11.962Z,20.94
2018-03-29T12:13:11.981Z,21.13
2018-03-29T12:14:12.014Z,21.50
2018-03-29T12:15:12.029Z,21.56
2018-03-29T12:16:12.050Z,21.54
2018-03-29T12:17:12.066Z,22.35
2018-03-29T12:18:12.101Z,21.67
2018-03-29T12:19:12.119Z,20.23
2018-03-29T12:20:12.140Z,19.39
2018-03-29T12:21:12.159Z,18.33
2018-03-29T12:22:12.242Z,17.62
2018-03-29T12:23:12.215Z,17.66
2018-03-29T12:24:12.239Z,17.78
2018-03-29T12:25:12.243Z,18.02
2018-03-29T12:26:12.264Z,17.82
2018-03-29T12:27:12.285Z,18.44
2018-03-29T12:28:12.313Z,18.25
2018-03-29T12:29:12.415Z,17.72
2018-03-29T12:30:12.356Z,17.87
2018-03-29T12:31:12.392Z,17.87
2018-03-29T12:32:12.399Z,17.70
2018-03-29T12:33:12.418Z,17.28
2018-03-29T12:34:12.440Z,17.07
2018-03-29T12:35:12.524Z,17.07
2018-03-29T12:36:12.490Z,17.04
2018-03-29T12:37:12.511Z,16.96
2018-03-29T12:38:12.525Z,16.78
2018-03-29T12:39:12.556Z,16.71
2018-03-29T12:40:12.577Z,16.71
2018-03-29T12:41:12.583Z,16.58
2018-03-29T12:42:12.614Z,16.70
2018-03-29T12:43:12.630Z,16.61
2018-03-29T12:44:12.660Z,16.41
2018-03-29T12:45:12.675Z,16.38
2018-03-29T12:46:12.698Z,16.41
2018-03-29T12:47:12.748Z,16.96
2018-03-29T12:48:12.732Z,18.07
2018-03-29T12:49:12.759Z,18.92
2018-03-29T12:50:12.768Z,19.74
2018-03-29T12:51:12.790Z,19.74
2018-03-29T12:52:12.864Z,19.08
2018-03-29T12:53:12.906Z,18.33
2018-03-29T12:54:12.851Z,17.93
2018-03-29T12:55:12.882Z,17.52
2018-03-29T12:56:12.907Z,17.06